Station Historical Data
Daily Summary for May 10, 2017 Units:  English    Metric   Both
« Previous Day
Next Day »
Daily Weekly Monthly Yearly Custom
  High: Low: Average:
Temperature: 85.4 °F 61.7 °F 72.9 °F
Dew Point: 62.3 °F 55.1 °F 58.2 °F
Humidity: 83% 38% 62%
Wind Speed: 2.0mph 0.0mph 0.1mph
Wind Gust: 7.0mph - -
Wind- - West
Pressure: 30.09 in 29.99 in -
Precipitation: 0.00 in    
Historical Graphs
 
 
Tabular Data for May 10, 2017
Time Temperature Dew Point Pressure Wind Wind Speed Wind Gust Humidity Rainfall Rate (Hourly) Conditions
00:00 65.8 °F 55.7 °F 30.02 in Calm     70% 0.00 in SCT
00:15 65.8 °F 55.7 °F 30.02 in Calm     70% 0.00 in SCT
00:30 65.8 °F 56.1 °F 30.02 in Calm     71% 0.00 in SCT
00:45 65.8 °F 55.7 °F 30.02 in Calm     70% 0.00 in SCT
01:00 65.8 °F 55.7 °F 30.02 in Calm     70% 0.00 in SCT
01:15 64.4 °F 55.9 °F 30.02 in Calm     74% 0.00 in SCT
01:30 64.4 °F 55.9 °F 30.02 in Calm     74% 0.00 in SCT
01:45 64.4 °F 55.9 °F 30.02 in Calm     74% 0.00 in SCT
02:00 64.4 °F 55.9 °F 30.02 in Calm     74% 0.00 in SCT
02:15 63.6 °F 55.9 °F 30.02 in Calm     76% 0.00 in SCT
02:30 63.2 °F 55.9 °F 30.02 in Calm     77% 0.00 in SCT
02:45 62.9 °F 56.0 °F 30.01 in Calm     78% 0.00 in SCT
03:00 62.6 °F 56.0 °F 30.01 in Calm     79% 0.00 in SCT
03:15 62.5 °F 55.9 °F 30.01 in Calm     79% 0.00 in SCT
03:30 61.7 °F 55.1 °F 30.01 in Calm     79% 0.00 in SCT
03:45 61.7 °F 55.1 °F 30.02 in Calm     79% 0.00 in SCT
04:00 61.7 °F 55.1 °F 30.02 in Calm     79% 0.00 in SCT
04:15 61.7 °F 55.1 °F 30.02 in Calm     79% 0.00 in SCT
04:30 61.7 °F 55.1 °F 30.02 in Calm     79% 0.00 in SCT
04:45 61.7 °F 55.1 °F 30.03 in Calm     79% 0.00 in SCT
05:00 61.7 °F 55.1 °F 30.03 in Calm     79% 0.00 in SCT
05:15 61.7 °F 55.1 °F 30.03 in Calm     79% 0.00 in SCT
05:30 61.7 °F 55.1 °F 30.04 in Calm     79% 0.00 in SCT
05:45 61.7 °F 55.1 °F 30.04 in Calm     79% 0.00 in SCT
06:00 61.7 °F 55.1 °F 30.04 in Calm     79% 0.00 in SCT
06:15 61.7 °F 55.1 °F 30.05 in Calm     79% 0.00 in SCT
06:30 61.7 °F 55.1 °F 30.05 in Calm     79% 0.00 in SCT
06:45 61.7 °F 55.1 °F 30.06 in Calm     79% 0.00 in SCT
07:00 61.7 °F 55.1 °F 30.06 in Calm     79% 0.00 in SCT
07:15 61.7 °F 55.1 °F 30.07 in Calm     79% 0.00 in SCT
07:30 61.7 °F 55.1 °F 30.07 in Calm     79% 0.00 in SCT
07:45 61.7 °F 55.1 °F 30.07 in Calm     79% 0.00 in SCT
08:00 63.0 °F 57.1 °F 30.08 in Calm     81% 0.00 in SCT
08:15 64.6 °F 59.3 °F 30.08 in Calm     83% 0.00 in SCT
08:30 65.8 °F 60.2 °F 30.08 in Calm     82% 0.00 in SCT
08:45 67.3 °F 60.9 °F 30.08 in Calm     80% 0.00 in SCT
09:00 69.0 °F 60.8 °F 30.08 in Calm   1.0 mph 75% 0.00 in SCT
09:15 71.0 °F 61.1 °F 30.09 in Calm   1.0 mph 71% 0.00 in SCT
09:30 73.5 °F 62.3 °F 30.08 in Calm   1.0 mph 68% 0.00 in SCT
09:45 74.4 °F 61.9 °F 30.09 in Calm   2.0 mph 65% 0.00 in SCT
10:00 75.3 °F 61.8 °F 30.09 in Calm   2.0 mph 63% 0.00 in SCT
10:15 76.5 °F 61.6 °F 30.08 in Calm   3.0 mph 60% 0.00 in SCT
10:30 76.9 °F 62.0 °F 30.08 in Calm   5.0 mph 60% 0.00 in SCT
10:45 77.7 °F 61.7 °F 30.09 in Calm   3.0 mph 58% 0.00 in SCT
11:00 78.3 °F 61.3 °F 30.08 in Calm   2.0 mph 56% 0.00 in SCT
11:15 78.5 °F 61.5 °F 30.08 in Calm   3.0 mph 56% 0.00 in SCT
11:30 79.3 °F 61.2 °F 30.09 in Calm   2.0 mph 54% 0.00 in SCT
11:45 79.3 °F 60.2 °F 30.09 in SSW 1.0 mph 5.0 mph 52% 0.00 in SCT
12:00 79.5 °F 60.9 °F 30.09 in WSW 1.0 mph 5.0 mph 53% 0.00 in SCT
12:15 80.1 °F 59.8 °F 30.09 in WSW 1.0 mph 5.0 mph 50% 0.00 in SCT
12:30 81.1 °F 60.7 °F 30.08 in WSW 1.0 mph 5.0 mph 50% 0.00 in SCT
12:45 81.9 °F 61.4 °F 30.07 in WSW 1.0 mph 6.0 mph 50% 0.00 in SCT
13:00 83.1 °F 59.0 °F 30.06 in SSW 2.0 mph 5.0 mph 44% 0.00 in SCT
13:15 84.1 °F 60.5 °F 30.06 in NW 1.0 mph 2.0 mph 45% 0.00 in SCT
13:30 84.2 °F 59.9 °F 30.06 in WSW 1.0 mph 6.0 mph 44% 0.00 in SCT
13:45 83.7 °F 59.5 °F 30.06 in Calm   5.0 mph 44% 0.00 in SCT
14:00 84.4 °F 58.8 °F 30.06 in Calm   5.0 mph 42% 0.00 in SCT
14:15 83.6 °F 59.4 °F 30.05 in Calm   7.0 mph 44% 0.00 in SCT
14:30 83.6 °F 58.8 °F 30.05 in SW 2.0 mph 5.0 mph 43% 0.00 in SCT
14:45 83.9 °F 59.7 °F 30.04 in WNW 1.0 mph 6.0 mph 44% 0.00 in SCT
15:00 84.2 °F 59.9 °F 30.04 in NW 1.0 mph 3.0 mph 44% 0.00 in SCT
15:15 84.5 °F 57.5 °F 30.03 in Calm   2.0 mph 40% 0.00 in SCT
15:30 83.8 °F 57.6 °F 30.03 in Calm   6.0 mph 41% 0.00 in SCT
15:45 83.6 °F 56.0 °F 30.02 in Calm   5.0 mph 39% 0.00 in SCT
16:00 83.8 °F 58.9 °F 30.02 in Calm   5.0 mph 43% 0.00 in SCT
16:15 83.9 °F 59.7 °F 30.01 in Calm   5.0 mph 44% 0.00 in SCT
16:30 83.9 °F 59.0 °F 30.01 in Calm   5.0 mph 43% 0.00 in SCT
16:45 84.0 °F 58.4 °F 30.01 in Calm   3.0 mph 42% 0.00 in SCT
17:00 84.5 °F 57.5 °F 30.00 in Calm   2.0 mph 40% 0.00 in SCT
17:15 85.4 °F 57.6 °F 30.00 in Calm   2.0 mph 39% 0.00 in SCT
17:30 84.8 °F 56.4 °F 30.00 in Calm     38% 0.00 in SCT
17:45 84.2 °F 57.9 °F 30.00 in Calm   2.0 mph 41% 0.00 in SCT
18:00 84.0 °F 57.8 °F 30.00 in North 1.0 mph 2.0 mph 41% 0.00 in SCT
18:15 83.9 °F 58.3 °F 30.00 in Calm   3.0 mph 42% 0.00 in SCT
18:30 83.1 °F 58.3 °F 30.00 in Calm   5.0 mph 43% 0.00 in SCT
18:45 82.1 °F 58.0 °F 29.99 in Calm     44% 0.00 in SCT
19:00 81.3 °F 59.7 °F 29.99 in Calm     48% 0.00 in SCT
19:15 80.4 °F 59.5 °F 29.99 in Calm     49% 0.00 in SCT
19:30 79.4 °F 60.2 °F 29.99 in Calm     52% 0.00 in SCT
19:45 78.8 °F 60.7 °F 29.99 in Calm     54% 0.00 in SCT
20:00 77.9 °F 59.9 °F 29.99 in Calm     54% 0.00 in SCT
20:15 76.7 °F 59.8 °F 29.99 in Calm     56% 0.00 in SCT
20:30 75.7 °F 59.4 °F 29.99 in Calm     57% 0.00 in SCT
20:45 74.9 °F 58.6 °F 29.99 in Calm     57% 0.00 in SCT
21:00 74.0 °F 59.2 °F 30.00 in Calm     60% 0.00 in SCT
21:15 73.2 °F 58.9 °F 30.00 in Calm     61% 0.00 in SCT
21:30 72.2 °F 58.9 °F 30.00 in Calm     63% 0.00 in SCT
21:45 71.5 °F 59.5 °F 30.00 in Calm     66% 0.00 in SCT
22:00 71.0 °F 59.5 °F 30.01 in Calm     67% 0.00 in SCT
22:15 70.7 °F 59.2 °F 30.01 in Calm     67% 0.00 in SCT
22:30 70.4 °F 59.7 °F 30.02 in Calm     69% 0.00 in SCT
22:45 70.0 °F 59.3 °F 30.02 in Calm     69% 0.00 in SCT
23:00 69.6 °F 59.8 °F 30.02 in Calm     71% 0.00 in SCT
23:15 69.2 °F 59.8 °F 30.02 in Calm     72% 0.00 in SCT
23:30 68.8 °F 59.8 °F 30.02 in Calm     73% 0.00 in SCT
23:45 68.6 °F 59.6 °F 30.02 in Calm     73% 0.00 in SCT
Piedmont Bend
Compliments of Weather Underground - 4 mb